Time;durP1;ratioP1;P1;durP2;ratioP2;P2;SDS_P1;SDS_P2;PMS_P1;PMS_P2;Temp;Humidity;BMP_temperature;BMP_pressure;BME280_temperature;BME280_humidity;BME280_pressure;Samples;Min_cycle;Max_cycle;Signal;HPM_P1;HPM_P2
2022/04/28 06:10:03;;;;;;;1.40;0.70;;;;;;;10.60;71.94;94151.91;5083874;28;20044;-76
2022/04/28 06:12:29;;;;;;;1.52;0.90;;;;;;;10.55;72.18;94149.38;5084064;28;20031;-76
2022/04/28 06:14:55;;;;;;;1.50;0.90;;;;;;;10.51;72.30;94147.63;5083845;28;20028;-76
2022/04/28 06:17:21;;;;;;;4.57;0.80;;;;;;;10.50;72.41;94148.69;5083739;28;20306;-74
2022/04/28 06:19:46;;;;;;;1.55;0.80;;;;;;;10.58;72.90;94158.63;5083948;28;20016;-75
2022/04/28 06:22:12;;;;;;;1.98;0.88;;;;;;;10.56;72.41;94150.94;5083895;28;20370;-75
2022/04/28 06:24:38;;;;;;;4.32;0.70;;;;;;;10.56;73.02;94150.94;5083937;28;20036;-75
2022/04/28 06:27:04;;;;;;;1.52;0.80;;;;;;;10.52;72.59;94152.66;5083698;28;20054;-75
2022/04/28 06:29:29;;;;;;;1.88;0.80;;;;;;;10.43;72.89;94162.47;5083529;28;20027;-76
2022/04/28 06:31:55;;;;;;;1.65;0.93;;;;;;;10.41;73.24;94156.66;5083748;28;20039;-76
2022/04/28 06:34:20;;;;;;;0.68;0.50;;;;;;;10.50;74.43;94170.00;5083429;28;20043;-78
2022/04/28 06:36:45;;;;;;;1.42;0.77;;;;;;;10.52;74.04;94157.97;5083688;28;20044;-78
2022/04/28 06:39:11;;;;;;;4.00;0.90;;;;;;;10.53;73.82;94162.22;5065668;28;20046;-78
2022/04/28 06:41:36;;;;;;;1.80;0.90;;;;;;;10.53;75.04;94154.22;5083439;28;20020;-76
2022/04/28 06:44:02;;;;;;;1.08;0.60;;;;;;;10.43;73.58;94167.78;5083442;28;20032;-76
2022/04/28 06:46:28;;;;;;;1.42;0.80;;;;;;;10.30;74.01;94165.97;5083368;28;20012;-78
2022/04/28 06:48:53;;;;;;;1.40;0.95;;;;;;;10.25;74.08;94162.31;5083208;28;20061;-77
2022/04/28 06:51:19;;;;;;;3.33;1.10;;;;;;;10.27;74.14;94163.91;5083308;28;20035;-77
2022/04/28 06:53:44;;;;;;;4.88;0.90;;;;;;;10.36;74.58;94168.22;5064957;28;20307;-77
2022/04/28 06:56:09;;;;;;;5.30;0.80;;;;;;;10.43;74.03;94165.13;5082960;28;20513;-79
2022/04/28 06:58:37;;;;;;;4.80;0.90;;;;;;;10.51;74.27;94174.28;5083065;28;20017;-77
2022/04/28 07:01:03;;;;;;;5.60;0.88;;;;;;;10.62;74.16;94168.38;5083238;28;20020;-81
2022/04/28 07:03:28;;;;;;;1.08;0.80;;;;;;;10.64;73.68;94168.88;5082897;28;20039;-79
2022/04/28 07:05:53;;;;;;;4.80;0.77;;;;;;;10.62;73.26;94179.06;5082890;28;20084;-78
2022/04/28 07:08:19;;;;;;;2.13;0.65;;;;;;;10.59;73.74;94174.31;5083472;28;20023;-82
2022/04/28 07:10:45;;;;;;;0.50;0.32;;;;;;;10.61;74.01;94172.13;5083004;28;20055;-84
2022/04/28 07:13:10;;;;;;;1.25;0.60;;;;;;;10.64;73.76;94178.72;5083339;28;20036;-83
2022/04/28 07:15:38;;;;;;;1.70;0.60;;;;;;;10.84;73.86;94188.88;5083052;28;20028;-83
2022/04/28 07:18:05;;;;;;;1.38;0.60;;;;;;;10.78;72.92;94189.31;5083052;28;20047;-83
2022/04/28 07:20:34;;;;;;;1.52;1.02;;;;;;;10.77;72.85;94190.41;5083042;28;20043;-82
2022/04/28 07:23:00;;;;;;;1.00;0.40;;;;;;;10.69;73.37;94185.81;5083209;28;20262;-81
2022/04/28 07:25:30;;;;;;;1.73;0.82;;;;;;;10.76;73.42;94181.63;5065023;28;20032;-82
2022/04/28 07:27:57;;;;;;;0.70;0.50;;;;;;;10.86;72.88;94185.91;5083304;28;20111;-81
2022/04/28 07:30:22;;;;;;;1.10;0.75;;;;;;;10.75;72.59;94187.28;5082966;28;20333;-76
2022/04/28 07:32:50;;;;;;;1.02;0.60;;;;;;;10.62;73.42;94189.72;5083037;28;20052;-76
2022/04/28 07:35:16;;;;;;;3.55;0.77;;;;;;;10.61;73.54;94190.78;5082837;28;20328;-90
2022/04/28 07:37:41;;;;;;;0.93;0.57;;;;;;;10.47;73.88;94189.28;5083042;28;20024;-86
2022/04/28 07:40:08;;;;;;;9.30;1.20;;;;;;;10.44;74.42;94196.00;5083255;28;20370;-89
2022/04/28 07:42:34;;;;;;;9.18;1.55;;;;;;;10.51;74.48;94188.38;5065793;28;20086;-89
2022/04/28 07:45:00;;;;;;;0.85;0.52;;;;;;;10.49;74.81;94189.78;5082931;28;20020;-86
2022/04/28 07:47:28;;;;;;;2.20;0.88;;;;;;;10.49;74.81;94193.22;5082993;28;20050;-79
2022/04/28 07:49:54;;;;;;;3.95;0.90;;;;;;;10.52;74.71;94195.28;5082643;28;20082;-77
2022/04/28 07:52:19;;;;;;;1.33;0.85;;;;;;;10.42;74.65;94193.66;5082660;28;20223;-75
2022/04/28 07:54:45;;;;;;;1.25;0.70;;;;;;;10.39;75.30;94190.81;5083206;28;20245;-77
2022/04/28 07:57:10;;;;;;;1.48;0.70;;;;;;;10.39;74.98;94194.25;5083494;28;20040;-81
2022/04/28 07:59:37;;;;;;;1.70;0.90;;;;;;;10.34;75.49;94201.56;5084225;28;20200;-82
2022/04/28 08:02:03;;;;;;;1.15;0.60;;;;;;;10.34;75.63;94207.72;5084112;28;20027;-85
2022/04/28 08:04:34;;;;;;;1.60;0.80;;;;;;;10.44;75.41;94204.00;5084051;28;20188;-84
2022/04/28 08:07:00;;;;;;;7.20;1.00;;;;;;;10.51;75.23;94200.91;5082534;28;20028;-81
2022/04/28 08:09:25;;;;;;;2.63;0.90;;;;;;;10.48;74.97;94206.84;5087492;28;20024;-82
2022/04/28 08:11:51;;;;;;;5.90;1.52;;;;;;;10.51;74.68;94208.91;5087978;28;20067;-77
2022/04/28 08:14:17;;;;;;;2.38;1.67;;;;;;;10.43;74.82;94203.22;5088037;28;20020;-78
2022/04/28 08:16:44;;;;;;;4.90;1.10;;;;;;;10.55;75.09;94207.22;5087897;28;20045;-88
2022/04/28 08:19:09;;;;;;;5.05;1.33;;;;;;;10.64;74.30;94210.72;5087150;28;20024;-83
2022/04/28 08:21:35;;;;;;;5.05;1.10;;;;;;;10.60;74.39;94207.09;5086746;28;20277;-83
2022/04/28 08:24:00;;;;;;;4.60;2.50;;;;;;;10.64;74.33;94208.03;5086127;28;20020;-84
2022/04/28 08:26:26;;;;;;;2.80;0.90;;;;;;;10.68;74.35;94210.91;5086320;28;20050;-81
2022/04/28 08:28:54;;;;;;;1.65;1.05;;;;;;;10.69;74.36;94225.81;5068307;28;20070;-82
2022/04/28 08:31:19;;;;;;;1.52;1.00;;;;;;;10.67;73.92;94228.00;5086082;28;20020;-79
2022/04/28 08:33:45;;;;;;;2.05;1.40;;;;;;;10.70;74.20;94225.50;5086756;28;20032;-85
2022/04/28 08:36:12;;;;;;;5.05;1.55;;;;;;;10.70;74.32;94222.03;5086533;28;20056;-81
2022/04/28 08:38:38;;;;;;;4.78;1.60;;;;;;;10.74;74.28;94231.00;5086115;28;20226;-88
2022/04/28 08:41:08;;;;;;;9.82;2.00;;;;;;;10.72;74.21;94225.97;5068596;28;20070;-88
2022/04/28 08:43:38;;;;;;;5.97;1.50;;;;;;;10.71;74.67;94229.75;5087250;28;20091;-90
2022/04/28 08:48:55;;;;;;;3.45;1.00;;;;;;;10.72;74.93;94230.53;5086239;28;20031;-84
2022/04/28 08:51:25;;;;;;;8.52;1.65;;;;;;;10.74;75.10;94231.00;5085816;28;20020;-85
2022/04/28 08:53:51;;;;;;;1.83;1.13;;;;;;;10.77;74.67;94228.53;5087307;28;20028;-86
2022/04/28 08:56:21;;;;;;;8.32;1.20;;;;;;;10.76;74.93;94231.50;5086417;28;20024;-86
2022/04/28 08:58:47;;;;;;;2.97;1.20;;;;;;;10.75;75.12;94230.72;5086267;28;20223;-84
2022/04/28 09:01:13;;;;;;;2.53;1.00;;;;;;;10.79;74.91;94231.69;5085237;28;20025;-86
2022/04/28 09:03:40;;;;;;;4.68;1.15;;;;;;;10.76;74.92;94240.25;5085449;28;20027;-86
2022/04/28 09:06:29;;;;;;;3.53;1.40;;;;;;;10.71;75.72;94223.63;5086050;28;20035;-85
2022/04/28 09:08:57;;;;;;;4.07;1.15;;;;;;;10.79;75.71;94230.91;5068605;28;20024;-86
2022/04/28 09:11:24;;;;;;;2.20;1.13;;;;;;;10.83;75.50;94232.63;5085374;28;20059;-83
2022/04/28 09:16:58;;;;;;;3.70;1.38;;;;;;;10.98;75.35;94226.13;5085573;28;20067;-88
2022/04/28 09:19:38;;;;;;;2.88;1.40;;;;;;;11.02;74.53;94227.09;5086178;28;20214;-89
2022/04/28 09:22:09;;;;;;;4.43;1.20;;;;;;;11.09;74.46;94225.84;5068296;28;20017;-90
2022/04/28 09:24:37;;;;;;;4.15;1.20;;;;;;;11.19;74.35;94236.25;5085431;28;20074;-86
2022/04/28 09:27:03;;;;;;;2.42;1.30;;;;;;;11.29;73.95;94236.00;5086653;28;20016;-85
2022/04/28 09:29:30;;;;;;;2.33;1.50;;;;;;;11.29;74.20;94225.31;5085981;28;20016;-79
2022/04/28 09:31:56;;;;;;;4.00;1.42;;;;;;;11.40;73.58;94226.63;5085300;28;20024;-80
2022/04/28 09:34:23;;;;;;;5.15;1.50;;;;;;;11.47;72.51;94234.19;5085622;28;20087;-81
2022/04/28 09:36:49;;;;;;;4.63;1.23;;;;;;;11.44;72.76;94232.94;5084886;28;20040;-85
2022/04/28 09:42:29;;;;;;;5.63;1.80;;;;;;;11.51;72.61;94247.69;5085027;28;20023;-82
2022/04/28 09:44:51;;;;;;;3.78;1.80;;;;;;;11.57;71.48;94231.22;5085010;28;20345;-82
2022/04/28 09:47:25;;;;;;;4.25;1.55;;;;;;;11.63;71.12;94230.00;5084982;28;20012;-82
2022/04/28 09:49:57;;;;;;;4.93;1.80;;;;;;;11.70;70.33;94226.06;5085327;28;20216;-80
2022/04/28 09:52:25;;;;;;;2.95;1.70;;;;;;;11.75;70.37;94232.06;5084755;28;20130;-84
2022/04/28 09:54:52;;;;;;;6.95;1.80;;;;;;;11.87;70.79;94228.03;5084682;28;20024;-84
2022/04/28 09:57:20;;;;;;;5.82;1.90;;;;;;;11.95;71.13;94227.28;5084710;28;20020;-79
2022/04/28 09:59:47;;;;;;;7.97;1.90;;;;;;;11.99;69.20;94226.34;5084561;28;20025;-83
2022/04/28 10:02:16;;;;;;;5.60;2.38;;;;;;;11.98;69.42;94219.41;5084362;28;20025;-77
2022/04/28 10:04:42;;;;;;;4.05;1.90;;;;;;;12.01;69.10;94226.03;5084375;28;20036;-83
2022/04/28 10:07:09;;;;;;;5.85;2.63;;;;;;;12.03;68.14;94231.84;5084290;28;20015;-84
2022/04/28 10:09:36;;;;;;;6.05;2.67;;;;;;;12.02;68.23;94230.25;5084526;28;20114;-84
2022/04/28 10:12:05;;;;;;;6.97;2.55;;;;;;;12.09;67.82;94222.56;5083093;28;20052;-80
2022/04/28 10:14:33;;;;;;;3.78;1.85;;;;;;;12.23;67.75;94220.53;5064983;28;20242;-80
2022/04/28 10:17:01;;;;;;;4.30;1.90;;;;;;;12.34;66.94;94225.56;5083950;28;20043;-79
2022/04/28 10:19:34;;;;;;;5.70;2.30;;;;;;;12.41;66.42;94225.88;5083921;28;20016;-80
2022/04/28 10:22:00;;;;;;;3.42;1.95;;;;;;;12.41;66.16;94223.19;5083955;28;20016;-81
2022/04/28 10:33:01;;;;;;;8.52;2.25;;;;;;;12.52;64.84;94219.13;5084127;28;20218;-81
2022/04/28 10:35:43;;;;;;;5.90;1.90;;;;;;;12.53;64.94;94211.88;5065865;28;20318;-80
2022/04/28 10:38:26;;;;;;;5.00;2.20;;;;;;;12.56;65.00;94213.94;5083699;28;20087;-79
2022/04/28 10:40:56;;;;;;;6.00;2.05;;;;;;;12.57;65.02;94210.91;5083697;28;20074;-80
2022/04/28 10:43:26;;;;;;;3.35;1.98;;;;;;;12.55;65.27;94215.00;5083509;28;20253;-84
2022/04/28 10:45:53;;;;;;;5.93;2.35;;;;;;;12.57;65.25;94218.16;5083640;28;20016;-83
2022/04/28 10:49:01;;;;;;;7.78;2.30;;;;;;;12.55;65.27;94215.00;5083739;28;20318;-83
2022/04/28 10:51:48;;;;;;;16.17;2.90;;;;;;;12.48;65.81;94212.03;5083296;28;20044;-82
2022/04/28 10:54:16;;;;;;;7.40;2.17;;;;;;;12.58;65.74;94217.84;5080332;28;20113;-84
2022/04/28 10:56:56;;;;;;;6.72;2.63;;;;;;;12.56;64.51;94209.34;5081662;28;20318;-81
2022/04/28 10:59:34;;;;;;;10.25;2.70;;;;;;;12.61;65.04;94209.19;5083380;28;20032;-87
2022/04/28 11:02:13;;;;;;;8.60;2.45;;;;;;;12.75;64.85;94218.94;5083167;28;20020;-81
2022/04/28 11:04:40;;;;;;;4.60;2.28;;;;;;;12.59;64.54;94211.38;5083163;28;20031;-83
2022/04/28 11:07:16;;;;;;;9.30;3.33;;;;;;;12.53;65.31;94212.66;5083057;28;20242;-81
2022/04/28 11:09:43;;;;;;;10.05;2.42;;;;;;;12.57;64.74;94210.91;5083207;28;20040;-82
2022/04/28 11:12:18;;;;;;;4.85;2.55;;;;;;;12.64;64.99;94207.78;5082758;28;20048;-83
2022/04/28 11:15:10;;;;;;;15.50;3.33;;;;;;;12.70;64.95;94211.06;5065049;28;20016;-82
2022/04/28 11:17:38;;;;;;;4.22;2.63;;;;;;;12.84;64.36;94217.81;5082624;28;20024;-82
2022/04/28 11:20:12;;;;;;;9.35;2.70;;;;;;;12.91;63.95;94206.63;5082988;28;20020;-82
2022/04/28 11:22:42;;;;;;;8.35;2.65;;;;;;;13.01;64.07;94210.84;5065327;28;20040;-81
2022/04/28 11:25:15;;;;;;;4.13;2.47;;;;;;;13.11;63.29;94204.34;5083154;28;20055;-84
2022/04/28 11:27:41;;;;;;;12.90;2.90;;;;;;;13.17;62.99;94213.78;5083133;28;20021;-85
2022/04/28 11:30:12;;;;;;;7.72;2.70;;;;;;;13.11;63.24;94212.38;5083565;28;20330;-87
2022/04/28 11:32:51;;;;;;;6.43;3.05;;;;;;;13.16;62.85;94213.00;5083787;28;20056;-82
2022/04/28 11:35:17;;;;;;;5.75;2.90;;;;;;;13.01;62.65;94200.91;5083509;28;20030;-85
2022/04/28 11:37:43;;;;;;;10.43;3.20;;;;;;;13.08;63.15;94205.00;5065472;28;20070;-86
2022/04/28 11:40:12;;;;;;;5.53;2.95;;;;;;;13.12;63.88;94216.63;5084073;28;20020;-84
2022/04/28 11:42:39;;;;;;;12.02;3.38;;;;;;;13.22;63.04;94210.94;5083461;28;20020;-87
2022/04/28 11:45:06;;;;;;;15.45;3.08;;;;;;;13.33;62.41;94206.84;5083591;28;20028;-83
2022/04/28 11:47:46;;;;;;;5.50;3.03;;;;;;;13.41;62.33;94202.53;5083383;28;20237;-86
2022/04/28 11:50:37;;;;;;;10.20;3.38;;;;;;;13.46;61.73;94199.69;5083008;28;20024;-74
2022/04/28 11:53:05;;;;;;;10.55;3.30;;;;;;;13.53;62.00;94207.19;5081309;28;20107;-74
2022/04/28 11:55:34;;;;;;;9.00;4.93;;;;;;;13.53;61.10;94207.19;5082158;28;20303;-75
2022/04/28 11:58:00;;;;;;;7.57;3.97;;;;;;;13.56;61.08;94203.88;5082548;28;20219;-75
2022/04/28 12:00:26;;;;;;;7.30;3.70;;;;;;;13.63;60.85;94204.16;5064536;28;20032;-75
2022/04/28 12:02:53;;;;;;;8.02;3.65;;;;;;;13.68;60.15;94203.19;5082560;28;20028;-74
2022/04/28 12:05:22;;;;;;;8.90;3.45;;;;;;;13.70;59.89;94192.94;5082694;28;20227;-76
2022/04/28 12:07:52;;;;;;;8.10;4.95;;;;;;;13.81;60.17;94197.59;5082528;28;20069;-75
2022/04/28 12:16:12;;;;;;;8.48;4.65;;;;;;;13.84;59.80;94193.50;5082413;28;20097;-76
2022/04/28 12:21:32;;;;;;;12.20;4.85;;;;;;;13.76;60.57;94192.44;5082140;28;20034;-76
2022/04/28 12:23:58;;;;;;;14.55;4.65;;;;;;;13.89;60.00;94189.84;5082342;28;20024;-74
2022/04/28 12:26:24;;;;;;;12.63;4.50;;;;;;;13.85;60.22;94189.69;5082130;28;20025;-75
2022/04/28 12:28:54;;;;;;;16.02;4.75;;;;;;;13.74;59.56;94194.66;5082471;28;20084;-84
2022/04/28 12:31:31;;;;;;;8.20;4.43;;;;;;;13.78;60.56;94184.06;5065474;28;20342;-88
2022/04/28 12:33:58;;;;;;;7.85;3.90;;;;;;;13.84;60.17;94185.47;5082950;28;20081;-87
2022/04/28 12:36:24;;;;;;;11.45;4.30;;;;;;;13.80;60.04;94187.22;5065288;28;20032;-88
2022/04/28 12:38:53;;;;;;;11.95;4.40;;;;;;;13.79;59.60;94180.28;5084070;28;20153;-86
2022/04/28 12:41:27;;;;;;;12.40;4.45;;;;;;;13.78;59.90;94184.06;5065364;28;20222;-90
2022/04/28 12:44:00;;;;;;;15.63;3.90;;;;;;;13.75;60.35;94182.81;5083037;28;20226;-86
2022/04/28 12:46:34;;;;;;;7.75;4.32;;;;;;;13.78;59.94;94181.38;5064972;28;20099;-81
2022/04/28 12:49:08;;;;;;;7.45;4.20;;;;;;;13.76;60.35;94176.34;5082355;28;20024;-87
2022/04/28 12:51:54;;;;;;;14.60;4.70;;;;;;;13.60;59.92;94170.00;5082223;28;20300;-86
2022/04/28 12:54:22;;;;;;;8.93;4.15;;;;;;;13.54;60.51;94184.69;5085927;28;20083;-83
2022/04/28 12:56:58;;;;;;;10.02;3.83;;;;;;;13.50;60.70;94178.41;5085651;28;20227;-82
2022/04/28 12:59:28;;;;;;;14.13;3.72;;;;;;;13.54;61.06;94190.03;5085804;28;20052;-85
2022/04/28 13:01:54;;;;;;;8.18;3.97;;;;;;;13.57;60.79;94184.81;5085995;28;20038;-84
2022/04/28 13:04:24;;;;;;;14.23;4.22;;;;;;;13.62;60.80;94181.16;5085650;28;20032;-87
2022/04/28 13:06:51;;;;;;;15.50;3.67;;;;;;;13.60;60.33;94178.81;5084510;28;20021;-85
2022/04/28 13:09:18;;;;;;;7.60;4.00;;;;;;;13.64;61.47;94174.38;5086002;28;20023;-85
2022/04/28 13:11:46;;;;;;;9.68;4.22;;;;;;;13.72;61.30;94171.97;5085506;28;20055;-87
2022/04/28 13:14:18;;;;;;;10.20;4.70;;;;;;;13.65;60.62;94175.16;5085411;28;20370;-86
2022/04/28 13:16:46;;;;;;;9.50;4.90;;;;;;;13.67;61.15;94175.63;5085322;28;20017;-85
2022/04/28 13:19:11;;;;;;;10.38;5.40;;;;;;;13.72;60.50;94183.47;5085704;28;20025;-87
2022/04/28 13:21:39;;;;;;;9.38;4.70;;;;;;;13.72;60.66;94174.63;5085647;28;20364;-87
2022/04/28 13:24:05;;;;;;;9.18;4.63;;;;;;;13.68;61.03;94174.53;5085282;28;20051;-87
2022/04/28 13:26:31;;;;;;;8.57;4.45;;;;;;;13.65;61.14;94175.94;5085256;28;20012;-88
2022/04/28 13:28:58;;;;;;;13.85;4.22;;;;;;;13.67;61.13;94172.94;5085256;28;20028;-81
2022/04/28 13:31:24;;;;;;;11.27;4.18;;;;;;;13.67;61.39;94172.94;5084971;28;20219;-83
2022/04/28 13:33:51;;;;;;;18.25;5.15;;;;;;;13.61;61.39;94164.28;5085160;28;20077;-84
2022/04/28 13:36:17;;;;;;;9.40;5.13;;;;;;;13.63;61.40;94163.97;5083487;28;20020;-82
2022/04/28 13:38:44;;;;;;;10.13;4.85;;;;;;;13.64;62.15;94171.69;5084838;28;20020;-84
2022/04/28 13:41:11;;;;;;;11.05;4.45;;;;;;;13.62;61.25;94168.56;5084466;28;20092;-81
2022/04/28 13:43:36;;;;;;;10.30;4.78;;;;;;;13.55;61.07;94178.97;5084649;28;20072;-83
2022/04/28 13:46:03;;;;;;;9.60;4.57;;;;;;;13.45;61.67;94176.69;5084895;28;20024;-82
2022/04/28 13:48:30;;;;;;;9.25;5.00;;;;;;;13.50;62.07;94170.38;5067191;28;20050;-88
2022/04/28 13:50:56;;;;;;;13.18;5.78;;;;;;;13.52;62.47;94176.19;5066747;28;20064;-84
2022/04/28 13:53:27;;;;;;;15.77;6.13;;;;;;;13.56;62.62;94182.47;5084668;28;20037;-88
2022/04/28 13:55:57;;;;;;;8.00;5.57;;;;;;;13.53;62.81;94177.75;5084349;28;20046;-87
2022/04/28 13:58:24;;;;;;;12.45;6.28;;;;;;;13.52;62.29;94181.53;5084582;28;20088;-77
2022/04/28 14:00:51;;;;;;;11.27;6.32;;;;;;;13.46;62.63;94185.50;5084457;28;20246;-76
2022/04/28 14:03:21;;;;;;;13.23;6.47;;;;;;;13.50;62.16;94183.75;5083550;28;20024;-76
2022/04/28 14:06:07;;;;;;;9.50;6.45;;;;;;;13.47;62.63;94174.47;5083301;28;20020;-86
2022/04/28 14:08:33;;;;;;;12.20;7.70;;;;;;;13.46;62.12;94182.84;5084026;28;20166;-84
2022/04/28 14:10:59;;;;;;;12.02;7.60;;;;;;;13.40;62.36;94179.56;5084203;28;20048;-82
2022/04/28 14:13:25;;;;;;;18.90;9.27;;;;;;;13.40;62.35;94193.72;5083991;28;20345;-78
2022/04/28 14:15:53;;;;;;;15.77;8.85;;;;;;;13.46;62.43;94188.97;5083877;28;20066;-82
2022/04/28 14:18:19;;;;;;;13.07;8.23;;;;;;;13.49;62.42;94180.28;5084266;28;20020;-81
2022/04/28 14:20:51;;;;;;;18.02;8.80;;;;;;;13.56;62.00;94190.50;5084172;28;20325;-83
2022/04/28 14:23:17;;;;;;;12.25;7.50;;;;;;;13.52;61.14;94193.03;5066373;28;20028;-82
2022/04/28 14:25:43;;;;;;;13.32;7.20;;;;;;;13.46;61.26;94188.19;5065998;28;20036;-82
2022/04/28 14:28:08;;;;;;;11.80;7.05;;;;;;;13.48;60.95;94180.63;5084288;28;20092;-82
2022/04/28 14:30:37;;;;;;;11.70;7.50;;;;;;;13.51;61.42;94182.63;5083890;28;20024;-81
2022/04/28 14:33:07;;;;;;;11.00;7.50;;;;;;;13.49;60.95;94187.53;5083795;28;20099;-79
2022/04/28 14:35:34;;;;;;;13.23;8.25;;;;;;;13.53;61.23;94191.13;5083823;28;20024;-82
2022/04/28 14:38:05;;;;;;;14.23;6.90;;;;;;;13.50;61.07;94187.22;5082990;28;20053;-82
2022/04/28 14:43:30;;;;;;;21.38;8.82;;;;;;;13.53;61.57;94202.63;5066332;28;20024;-75
2022/04/28 14:45:55;;;;;;;12.63;7.70;;;;;;;13.60;61.44;94188.75;5081336;28;20016;-76
2022/04/28 14:48:21;;;;;;;14.15;8.00;;;;;;;13.64;61.20;94201.16;5083135;28;20020;-84
2022/04/28 14:53:34;;;;;;;18.63;8.27;;;;;;;13.51;60.73;94196.03;5083456;28;20030;-82
2022/04/28 14:55:59;;;;;;;16.63;8.68;;;;;;;13.48;60.81;94202.81;5083463;28;20025;-80
2022/04/28 14:58:25;;;;;;;12.60;8.65;;;;;;;13.51;61.13;94196.03;5083407;28;20219;-84
2022/04/28 15:00:51;;;;;;;16.35;8.35;;;;;;;13.62;61.61;94207.97;5083839;28;20029;-82
2022/04/28 15:03:38;;;;;;;20.67;9.00;;;;;;;13.58;61.60;94202.44;5065426;28;20095;-90
2022/04/28 15:06:04;;;;;;;17.50;9.77;;;;;;;13.53;61.08;94196.50;5082930;28;20029;-81
2022/04/28 15:08:30;;;;;;;13.13;8.55;;;;;;;13.52;61.19;94202.97;5083141;28;20042;-81
2022/04/28 15:10:55;;;;;;;13.90;9.07;;;;;;;13.47;61.04;94195.09;5083068;28;20044;-81
2022/04/28 15:13:21;;;;;;;17.65;9.95;;;;;;;13.47;61.64;94197.78;5084196;28;20214;-87
2022/04/28 15:15:48;;;;;;;14.77;8.45;;;;;;;13.52;61.25;94197.63;5082543;28;20312;-88
2022/04/28 15:18:14;;;;;;;15.50;7.75;;;;;;;13.43;61.86;94193.09;5082099;28;20357;-86
2022/04/28 15:20:42;;;;;;;13.68;8.32;;;;;;;13.48;61.70;94200.16;5082976;28;20024;-83
2022/04/28 15:23:08;;;;;;;11.93;7.43;;;;;;;13.40;61.47;94192.94;5081658;28;20035;-82
2022/04/28 15:25:33;;;;;;;11.90;7.95;;;;;;;13.39;61.85;94197.50;5065237;28;20020;-82
2022/04/28 15:27:59;;;;;;;11.88;7.82;;;;;;;13.43;61.74;94193.09;5065069;28;20023;-78
2022/04/28 15:30:24;;;;;;;15.93;8.77;;;;;;;13.48;61.62;94199.38;5082912;28;20107;-87
2022/04/28 15:32:50;;;;;;;16.40;8.93;;;;;;;13.53;61.46;94201.84;5083267;28;20310;-82
2022/04/28 15:35:16;;;;;;;11.02;8.07;;;;;;;13.59;61.07;94209.38;5083044;28;20055;-80
2022/04/28 15:37:42;;;;;;;13.82;8.13;;;;;;;13.64;60.64;94211.88;5082743;28;20277;-80
2022/04/28 15:40:10;;;;;;;20.23;9.40;;;;;;;13.63;60.27;94212.97;5082573;28;20346;-83
2022/04/28 15:42:37;;;;;;;13.25;8.40;;;;;;;13.61;60.28;94211.72;5083267;28;20032;-85
2022/04/28 15:45:03;;;;;;;12.35;8.68;;;;;;;13.57;60.57;94210.81;5082803;28;20020;-81
2022/04/28 15:47:28;;;;;;;18.33;8.05;;;;;;;13.56;60.60;94211.94;5082706;28;20036;-75
2022/04/28 15:49:54;;;;;;;14.30;8.85;;;;;;;13.58;60.61;94215.06;5082713;28;20028;-76
2022/04/28 15:52:19;;;;;;;11.18;7.90;;;;;;;13.61;60.22;94214.41;5082697;28;20095;-76
2022/04/28 15:54:44;;;;;;;13.73;9.18;;;;;;;13.58;60.04;94213.16;5082438;28;20024;-76
2022/04/28 15:57:10;;;;;;;13.57;8.43;;;;;;;13.57;60.00;94210.81;5082054;28;20021;-76
2022/04/28 15:59:35;;;;;;;13.27;8.77;;;;;;;13.56;60.11;94211.94;5082359;28;20044;-76
2022/04/28 16:02:00;;;;;;;24.73;9.60;;;;;;;13.56;60.39;94214.59;5080980;28;20025;-76
2022/04/28 16:04:26;;;;;;;20.88;8.98;;;;;;;13.57;60.55;94224.19;5080916;28;20087;-76
2022/04/28 16:06:51;;;;;;;14.98;9.35;;;;;;;13.59;60.79;94224.66;5082496;28;20025;-75
2022/04/28 16:09:17;;;;;;;12.15;8.43;;;;;;;13.57;60.74;94218.84;5082362;28;20024;-76
2022/04/28 16:11:46;;;;;;;12.80;8.65;;;;;;;13.56;60.59;94223.41;5082281;28;20052;-75
2022/04/28 16:14:11;;;;;;;17.42;9.68;;;;;;;13.54;60.30;94222.19;5082408;28;20025;-75
2022/04/28 16:16:38;;;;;;;16.65;9.93;;;;;;;13.51;60.60;94231.63;5082235;28;20028;-76
2022/04/28 16:19:04;;;;;;;14.73;9.73;;;;;;;13.47;60.86;94243.31;5082132;28;20089;-75
2022/04/28 16:21:30;;;;;;;13.73;8.30;;;;;;;13.32;57.09;94231.25;5082044;28;20066;-76
2022/04/28 16:23:55;;;;;;;15.68;9.02;;;;;;;13.31;56.27;94243.03;5082590;28;20032;-75
2022/04/28 16:26:21;;;;;;;13.93;7.68;;;;;;;13.19;55.43;94249.84;5082436;28;20082;-76
2022/04/28 16:28:46;;;;;;;11.25;7.03;;;;;;;13.15;54.59;94253.47;5084973;28;20153;-76
2022/04/28 16:31:12;;;;;;;12.93;7.40;;;;;;;13.17;54.67;94253.94;5086098;28;20021;-75
2022/04/28 16:33:37;;;;;;;12.90;7.03;;;;;;;13.09;56.49;94250.19;5085991;28;20028;-84
2022/04/28 16:36:03;;;;;;;9.80;7.45;;;;;;;13.05;56.43;94252.69;5085868;28;20021;-84
2022/04/28 16:38:32;;;;;;;10.95;6.78;;;;;;;12.99;55.47;94264.66;5068168;28;20021;-77
2022/04/28 16:40:57;;;;;;;9.68;6.53;;;;;;;12.90;54.44;94274.59;5085794;28;20029;-77
2022/04/28 16:43:23;;;;;;;8.88;6.18;;;;;;;12.88;54.66;94271.44;5086010;28;20336;-77
2022/04/28 16:45:49;;;;;;;10.02;7.57;;;;;;;12.80;54.55;94269.56;5085718;28;20020;-77
2022/04/28 16:48:14;;;;;;;16.50;6.40;;;;;;;12.77;55.04;94272.88;5085749;28;20032;-77
2022/04/28 16:50:40;;;;;;;11.95;7.22;;;;;;;12.83;54.78;94279.66;5085724;28;20188;-77
2022/04/28 16:53:05;;;;;;;13.25;6.20;;;;;;;12.74;54.74;94282.34;5085765;28;20021;-76
2022/04/28 16:55:31;;;;;;;9.35;6.80;;;;;;;12.71;54.96;94282.94;5085500;28;20164;-76
2022/04/28 16:57:57;;;;;;;10.68;7.55;;;;;;;12.66;55.37;94285.81;5085049;28;20098;-77
2022/04/28 17:00:22;;;;;;;10.43;6.53;;;;;;;12.68;55.96;94283.59;5085598;28;20024;-76
2022/04/28 17:05:32;;;;;;;11.00;6.72;;;;;;;12.63;55.38;94297.13;5085335;28;20078;-76
2022/04/28 17:07:57;;;;;;;10.10;6.32;;;;;;;12.60;55.06;94285.16;5085148;28;20028;-76
2022/04/28 17:10:23;;;;;;;11.20;6.40;;;;;;;12.59;54.73;94286.25;5085334;28;20045;-76
2022/04/28 17:12:48;;;;;;;10.07;5.72;;;;;;;12.49;55.34;94286.56;5085244;28;20028;-76
2022/04/28 17:15:14;;;;;;;9.45;6.70;;;;;;;12.43;54.64;94293.16;5085325;28;20092;-77
2022/04/28 17:17:41;;;;;;;9.88;5.78;;;;;;;12.42;54.00;94296.97;5085089;28;20017;-77
2022/04/28 17:20:08;;;;;;;9.20;6.40;;;;;;;12.37;54.32;94297.09;5084895;28;20043;-77
2022/04/28 17:22:38;;;;;;;7.95;5.68;;;;;;;12.29;54.51;94306.66;5084959;28;20016;-78
2022/04/28 17:25:07;;;;;;;11.52;6.15;;;;;;;12.25;54.69;94303.06;5085072;28;20058;-78
2022/04/28 17:27:35;;;;;;;9.98;6.32;;;;;;;12.28;54.68;94307.00;5085036;28;20215;-77
2022/04/28 17:30:01;;;;;;;11.80;6.30;;;;;;;12.15;55.27;94312.19;5084887;28;20061;-77
2022/04/28 17:32:27;;;;;;;8.82;5.47;;;;;;;12.12;55.16;94320.81;5067012;28;20042;-77
2022/04/28 17:34:53;;;;;;;8.18;5.95;;;;;;;12.04;54.98;94319.66;5084962;28;20028;-78
2022/04/28 17:37:18;;;;;;;10.50;5.57;;;;;;;12.08;55.02;94325.19;5084874;28;20029;-77
2022/04/28 17:39:46;;;;;;;9.52;5.85;;;;;;;12.04;54.98;94330.34;5084552;28;20020;-78
2022/04/28 17:42:12;;;;;;;9.32;5.60;;;;;;;12.06;54.56;94332.72;5084572;28;20024;-78
2022/04/28 17:44:38;;;;;;;9.77;5.43;;;;;;;12.06;54.61;94340.75;5066830;28;20047;-78
2022/04/28 17:47:04;;;;;;;7.07;5.10;;;;;;;12.02;54.87;94337.91;5084833;28;20023;-78
2022/04/28 17:49:29;;;;;;;8.73;5.82;;;;;;;12.03;55.18;94341.38;5084698;28;20031;-78
2022/04/28 17:51:55;;;;;;;12.25;6.53;;;;;;;11.93;55.51;94337.09;5084627;28;20028;-76
2022/04/28 17:54:21;;;;;;;8.23;5.68;;;;;;;11.82;55.55;94349.91;5084641;28;20039;-77
2022/04/28 18:02:16;;;;;;;9.32;4.93;;;;;;;11.88;55.36;94355.09;5084457;28;20039;-76
2022/04/28 18:04:42;;;;;;;9.45;6.18;;;;;;;11.82;55.46;94360.59;5084400;28;20029;-75
2022/04/28 18:07:10;;;;;;;10.98;5.70;;;;;;;11.81;55.27;94356.34;5084196;28;20088;-76
2022/04/28 18:09:36;;;;;;;12.18;6.10;;;;;;;11.80;55.91;94367.31;5084247;28;20029;-77
2022/04/28 18:12:05;;;;;;;10.88;5.50;;;;;;;11.91;55.56;94367.91;5066084;28;20043;-78
2022/04/28 18:14:32;;;;;;;8.68;5.47;;;;;;;11.93;55.50;94368.38;5084467;28;20035;-76
2022/04/28 18:16:57;;;;;;;9.40;5.97;;;;;;;11.91;55.16;94370.56;5083945;28;20020;-77
2022/04/28 18:19:25;;;;;;;9.77;5.60;;;;;;;11.92;55.06;94374.78;5083959;28;20069;-75
2022/04/28 18:21:51;;;;;;;12.57;6.35;;;;;;;11.95;55.44;94371.53;5083926;28;20024;-75